createdAt,value
2018-01-14T00:00:11.631Z,101396.63
2018-01-14T00:02:39.161Z,101393.37
2018-01-14T00:05:06.736Z,101391.78
2018-01-14T00:07:34.322Z,101397.42
2018-01-14T00:10:01.918Z,101398.25
2018-01-14T00:12:29.457Z,101398.68
2018-01-14T00:14:56.981Z,101393.97
2018-01-14T00:17:24.562Z,101400.89
2018-01-14T00:19:52.149Z,101401.75
2018-01-14T00:22:19.743Z,101403.35
2018-01-14T00:24:47.336Z,101398.14
2018-01-14T00:27:14.922Z,101406.27
2018-01-14T00:29:42.489Z,101393.97
2018-01-14T00:32:10.079Z,101406.05
2018-01-14T00:34:37.668Z,101398.25
2018-01-14T00:37:05.206Z,101399.00
2018-01-14T00:39:32.750Z,101394.14
2018-01-14T00:42:00.403Z,101401.55
2018-01-14T00:44:27.991Z,101408.33
2018-01-14T00:46:55.542Z,101402.06
2018-01-14T00:49:23.134Z,101395.83
2018-01-14T00:51:50.665Z,101392.11
2018-01-14T00:54:18.240Z,101397.52
2018-01-14T00:56:45.830Z,101399.49
2018-01-14T00:59:13.422Z,101397.23
2018-01-14T01:01:41.024Z,101398.95
2018-01-14T01:04:08.618Z,101396.77
2018-01-14T01:06:36.202Z,101402.45
2018-01-14T01:09:03.913Z,101397.98
2018-01-14T01:11:31.502Z,101401.06
2018-01-14T01:13:59.102Z,101386.53
2018-01-14T01:16:26.634Z,101396.48
2018-01-14T01:18:54.290Z,101384.86
2018-01-14T01:21:21.812Z,101385.39
2018-01-14T01:23:49.406Z,101389.98
2018-01-14T01:26:16.977Z,101392.01
2018-01-14T01:28:44.506Z,101390.69
2018-01-14T01:31:12.106Z,101392.73
2018-01-14T01:33:39.638Z,101388.77
2018-01-14T01:36:07.166Z,101388.30
2018-01-14T01:38:34.702Z,101399.70
2018-01-14T01:41:02.238Z,101388.95
2018-01-14T01:43:29.817Z,101392.36
2018-01-14T01:45:57.346Z,101391.86
2018-01-14T01:48:24.870Z,101386.86
2018-01-14T01:50:52.468Z,101390.59
2018-01-14T01:53:19.993Z,101392.36
2018-01-14T01:55:47.561Z,101389.09
2018-01-14T01:58:15.091Z,101387.83
2018-01-14T02:00:42.614Z,101386.88
2018-01-14T02:03:10.157Z,101390.72
2018-01-14T02:05:37.687Z,101391.08
2018-01-14T02:08:05.269Z,101387.28
2018-01-14T02:10:32.802Z,101384.14
2018-01-14T02:13:00.403Z,101385.64
2018-01-14T02:15:28.010Z,101378.33
2018-01-14T02:17:55.542Z,101381.86
2018-01-14T02:20:23.182Z,101371.58
2018-01-14T02:22:50.784Z,101372.64
2018-01-14T02:25:18.375Z,101375.20
2018-01-14T02:27:45.914Z,101378.56
2018-01-14T02:30:13.450Z,101382.73
2018-01-14T02:32:41.033Z,101379.59
2018-01-14T02:35:08.576Z,101372.58
2018-01-14T02:37:36.121Z,101380.30
2018-01-14T02:40:03.659Z,101383.55
2018-01-14T02:42:31.206Z,101380.38
2018-01-14T02:44:58.814Z,101381.24
2018-01-14T02:47:26.410Z,101375.39
2018-01-14T02:49:53.946Z,101374.07
2018-01-14T02:52:21.490Z,101373.64
2018-01-14T02:54:49.023Z,101366.02
2018-01-14T02:57:16.666Z,101368.84
2018-01-14T02:59:44.278Z,101367.33
2018-01-14T03:02:11.810Z,101365.94
2018-01-14T03:04:39.389Z,101366.95
2018-01-14T03:07:06.906Z,101366.55
2018-01-14T03:09:34.542Z,101368.35
2018-01-14T03:12:02.070Z,101360.72
2018-01-14T03:14:29.597Z,101366.03
2018-01-14T03:16:57.193Z,101370.14
2018-01-14T03:19:24.769Z,101361.75
2018-01-14T03:21:52.350Z,101359.20
2018-01-14T03:24:19.934Z,101364.03
2018-01-14T03:26:47.470Z,101361.25
2018-01-14T03:29:15.070Z,101359.15
2018-01-14T03:31:42.626Z,101361.93
2018-01-14T03:34:10.233Z,101367.30
2018-01-14T03:36:37.765Z,101367.97
2018-01-14T03:39:05.333Z,101372.09
2018-01-14T03:41:32.925Z,101370.12
2018-01-14T03:44:00.465Z,101374.20
2018-01-14T03:46:28.046Z,101364.30
2018-01-14T03:48:55.574Z,101363.23
2018-01-14T03:51:23.160Z,101362.84
2018-01-14T03:53:50.766Z,101367.08
2018-01-14T03:56:18.302Z,101367.84
2018-01-14T03:58:45.938Z,101364.30
2018-01-14T04:01:13.497Z,101368.20
2018-01-14T04:03:41.033Z,101362.02
2018-01-14T04:06:08.574Z,101373.09
2018-01-14T04:08:36.114Z,101374.76
2018-01-14T04:11:03.694Z,101371.70
2018-01-14T04:13:31.227Z,101369.13
2018-01-14T04:15:58.815Z,101370.91
2018-01-14T04:18:26.354Z,101372.23
2018-01-14T04:20:53.889Z,101375.48
2018-01-14T04:23:21.529Z,101370.88
2018-01-14T04:25:49.113Z,101379.76
2018-01-14T04:28:16.704Z,101377.55
2018-01-14T04:30:44.240Z,101384.55
2018-01-14T04:33:11.774Z,101383.03
2018-01-14T04:35:39.375Z,101384.80
2018-01-14T04:38:06.917Z,101391.41
2018-01-14T04:40:34.449Z,101397.72
2018-01-14T04:43:01.987Z,101391.52
2018-01-14T04:45:29.526Z,101394.59
2018-01-14T04:47:57.062Z,101396.81
2018-01-14T04:50:24.642Z,101401.46
2018-01-14T04:52:52.186Z,101406.12
2018-01-14T04:55:19.731Z,101403.73
2018-01-14T04:57:47.277Z,101416.47
2018-01-14T05:00:14.818Z,101416.36
2018-01-14T05:02:42.361Z,101418.51
2018-01-14T05:05:09.902Z,101411.88
2018-01-14T05:07:37.437Z,101409.39
2018-01-14T05:10:04.975Z,101415.80
2018-01-14T05:12:32.521Z,101408.73
2018-01-14T05:15:00.119Z,101419.00
2018-01-14T05:17:27.654Z,101423.86
2018-01-14T05:19:55.254Z,101427.47
2018-01-14T05:22:22.898Z,101429.44
2018-01-14T05:24:50.425Z,101434.44
2018-01-14T05:27:17.968Z,101435.13
2018-01-14T05:29:45.550Z,101431.72
2018-01-14T05:32:13.078Z,101437.23
2018-01-14T05:34:40.615Z,101430.89
2018-01-14T05:37:08.155Z,101430.60
2018-01-14T05:39:35.695Z,101440.69
2018-01-14T05:42:03.250Z,101450.03
2018-01-14T05:44:30.854Z,101452.70
2018-01-14T05:46:58.394Z,101446.27
2018-01-14T05:49:25.947Z,101449.08
2018-01-14T05:51:53.485Z,101437.51
2018-01-14T05:54:21.023Z,101443.49
2018-01-14T05:56:48.564Z,101446.77
2018-01-14T05:59:16.098Z,101437.21
2018-01-14T06:01:43.630Z,101448.38
2018-01-14T06:04:11.178Z,101445.34
2018-01-14T06:06:38.759Z,101448.48
2018-01-14T06:09:06.297Z,101451.16
2018-01-14T06:11:33.908Z,101444.41
2018-01-14T06:14:01.443Z,101446.53
2018-01-14T06:16:29.041Z,101450.27
2018-01-14T06:18:56.642Z,101453.57
2018-01-14T06:21:24.178Z,101451.05
2018-01-14T06:23:51.781Z,101459.25
2018-01-14T06:26:19.322Z,101456.97
2018-01-14T06:28:46.855Z,101460.52
2018-01-14T06:31:14.386Z,101463.00
2018-01-14T06:33:41.989Z,101459.75
2018-01-14T06:36:09.579Z,101462.54
2018-01-14T06:38:37.106Z,101463.26
2018-01-14T06:41:04.642Z,101472.10
2018-01-14T06:43:32.170Z,101460.37
2018-01-14T06:45:59.706Z,101463.59
2018-01-14T06:48:27.313Z,101464.76
2018-01-14T06:50:54.902Z,101464.18
2018-01-14T06:53:22.442Z,101461.94
2018-01-14T06:55:49.990Z,101464.55
2018-01-14T06:58:17.526Z,101472.50
2018-01-14T07:00:45.062Z,101474.58
2018-01-14T07:03:12.614Z,101476.42
2018-01-14T07:05:40.149Z,101472.70
2018-01-14T07:08:07.741Z,101474.34
2018-01-14T07:10:35.334Z,101477.95
2018-01-14T07:13:02.878Z,101475.98
2018-01-14T07:15:30.410Z,101480.94
2018-01-14T07:17:58.011Z,101475.80
2018-01-14T07:20:25.546Z,101484.95
2018-01-14T07:22:53.074Z,101486.92
2018-01-14T07:25:20.609Z,101486.11
2018-01-14T07:27:48.137Z,101487.53
2018-01-14T07:30:15.730Z,101491.49
2018-01-14T07:32:43.274Z,101492.09
2018-01-14T07:35:10.806Z,101499.01
2018-01-14T07:37:38.403Z,101501.58
2018-01-14T07:40:05.942Z,101502.48
2018-01-14T07:42:33.478Z,101507.33
2018-01-14T07:45:01.017Z,101517.38
2018-01-14T07:47:28.557Z,101511.43
2018-01-14T07:49:56.154Z,101509.42
2018-01-14T07:52:23.742Z,101510.55
2018-01-14T07:54:51.278Z,101512.66
2018-01-14T07:57:18.866Z,101513.62
2018-01-14T07:59:46.398Z,101516.82
2018-01-14T08:02:13.929Z,101512.69
2018-01-14T08:04:41.514Z,101515.91
2018-01-14T08:07:09.098Z,101515.19
2018-01-14T08:09:36.640Z,101527.45
2018-01-14T08:12:04.222Z,101531.42
2018-01-14T08:14:31.747Z,101524.48
2018-01-14T08:16:59.383Z,101530.68
2018-01-14T08:19:26.974Z,101531.39
2018-01-14T08:21:54.558Z,101538.80
2018-01-14T08:24:22.192Z,101541.94
2018-01-14T08:26:49.782Z,101541.16
2018-01-14T08:29:17.311Z,101542.05
2018-01-14T08:31:44.891Z,101535.02
2018-01-14T08:34:12.482Z,101539.83
2018-01-14T08:36:40.010Z,101542.09
2018-01-14T08:39:07.581Z,101542.75
2018-01-14T08:41:35.113Z,101543.69
2018-01-14T08:44:02.698Z,101548.67
2018-01-14T08:46:30.339Z,101547.41
2018-01-14T08:48:57.866Z,101554.95
2018-01-14T08:51:25.398Z,101554.27
2018-01-14T08:53:53.042Z,101552.40
2018-01-14T08:56:20.626Z,101548.67
2018-01-14T08:58:48.206Z,101548.87
2018-01-14T09:01:15.832Z,101551.08
2018-01-14T09:03:43.366Z,101552.48
2018-01-14T09:06:10.897Z,101555.23
2018-01-14T09:08:38.478Z,101556.27
2018-01-14T09:11:06.006Z,101553.42
2018-01-14T09:13:33.603Z,101548.57
2018-01-14T09:16:01.242Z,101549.25
2018-01-14T09:18:28.822Z,101543.27
2018-01-14T09:20:56.362Z,101535.77
2018-01-14T09:23:23.942Z,101533.89
2018-01-14T09:25:51.539Z,101532.06
2018-01-14T09:28:19.069Z,101531.71
2018-01-14T09:30:58.589Z,101523.08
2018-01-14T09:33:26.117Z,101517.86
2018-01-14T09:35:53.646Z,101516.14
2018-01-14T09:38:21.181Z,101524.48
2018-01-14T09:40:48.714Z,101522.20
2018-01-14T09:43:16.338Z,101518.33
2018-01-14T09:45:43.912Z,101518.94
2018-01-14T09:48:11.442Z,101514.22
2018-01-14T09:50:39.031Z,101511.19
2018-01-14T09:53:06.557Z,101512.83
2018-01-14T09:55:34.191Z,101518.03
2018-01-14T09:58:01.734Z,101510.30
2018-01-14T10:00:29.263Z,101511.05
2018-01-14T10:02:56.809Z,101508.84
2018-01-14T10:05:24.342Z,101511.52
2018-01-14T10:07:51.917Z,101511.83
2018-01-14T10:10:19.454Z,101507.56
2018-01-14T10:12:47.054Z,101506.66
2018-01-14T10:15:14.591Z,101501.17
2018-01-14T10:17:42.189Z,101500.37
2018-01-14T10:20:09.761Z,101496.02
2018-01-14T10:22:37.294Z,101501.33
2018-01-14T10:25:04.834Z,101491.42
2018-01-14T10:27:32.371Z,101492.69
2018-01-14T10:29:59.906Z,101487.37
2018-01-14T10:32:27.486Z,101491.86
2018-01-14T10:34:55.034Z,101479.34
2018-01-14T10:37:22.567Z,101482.09
2018-01-14T10:39:50.166Z,101478.78
2018-01-14T10:42:17.689Z,101487.86
2018-01-14T10:44:45.257Z,101483.97
2018-01-14T10:47:12.787Z,101477.00
2018-01-14T10:49:40.321Z,101472.36
2018-01-14T10:52:07.862Z,101464.91
2018-01-14T10:54:35.446Z,101467.35
2018-01-14T10:57:03.877Z,101464.30
2018-01-14T10:59:31.466Z,101461.70
2018-01-14T11:01:59.002Z,101461.10
2018-01-14T11:04:26.542Z,101457.40
2018-01-14T11:06:54.070Z,101455.68
2018-01-14T11:09:21.669Z,101453.20
2018-01-14T11:11:49.259Z,101445.02
2018-01-14T11:14:16.863Z,101446.17
2018-01-14T11:16:44.403Z,101442.12
2018-01-14T11:19:11.946Z,101440.30
2018-01-14T11:21:39.513Z,101444.39
2018-01-14T11:24:07.038Z,101439.63
2018-01-14T11:26:34.562Z,101430.77
2018-01-14T11:29:02.094Z,101431.84
2018-01-14T11:31:29.625Z,101433.55
2018-01-14T11:33:57.157Z,101437.16
2018-01-14T11:36:24.739Z,101422.02
2018-01-14T11:38:52.318Z,101427.17
2018-01-14T11:41:19.846Z,101423.97
2018-01-14T11:43:47.437Z,101424.01
2018-01-14T11:46:14.979Z,101418.94
2018-01-14T11:48:42.505Z,101422.22
2018-01-14T11:51:10.076Z,101417.85
2018-01-14T11:53:37.609Z,101417.66
2018-01-14T11:56:05.136Z,101416.17
2018-01-14T11:58:32.665Z,101411.91
2018-01-14T12:01:00.199Z,101414.66
2018-01-14T12:03:27.774Z,101416.25
2018-01-14T12:05:55.306Z,101417.73
2018-01-14T12:08:22.830Z,101416.33
2018-01-14T12:10:50.361Z,101420.34
2018-01-14T12:13:17.885Z,101436.95
2018-01-14T12:15:45.465Z,101435.88
2018-01-14T12:18:13.000Z,101434.38
2018-01-14T12:20:40.591Z,101428.92
2018-01-14T12:23:08.326Z,101433.95
2018-01-14T12:25:35.855Z,101430.76
2018-01-14T12:28:03.430Z,101430.09
2018-01-14T12:30:31.015Z,101430.64
2018-01-14T12:33:08.202Z,101437.62
2018-01-14T12:35:35.733Z,101433.91
2018-01-14T12:38:03.329Z,101435.21
2018-01-14T12:40:30.870Z,101428.69
2018-01-14T12:42:58.454Z,101424.55
2018-01-14T12:45:26.030Z,101429.38
2018-01-14T12:47:53.654Z,101420.11
2018-01-14T12:50:21.238Z,101420.84
2018-01-14T12:52:48.777Z,101419.00
2018-01-14T12:55:16.301Z,101420.98
2018-01-14T12:57:43.942Z,101421.03
2018-01-14T13:00:11.474Z,101420.11
2018-01-14T13:02:39.021Z,101423.69
2018-01-14T13:05:06.614Z,101429.25
2018-01-14T13:07:34.141Z,101433.33
2018-01-14T13:10:01.714Z,101425.66
2018-01-14T13:12:29.303Z,101435.47
2018-01-14T13:14:56.830Z,101440.17
2018-01-14T13:17:24.368Z,101442.17
2018-01-14T13:19:51.894Z,101450.33
2018-01-14T13:22:19.535Z,101450.52
2018-01-14T13:24:47.118Z,101449.98
2018-01-14T13:27:14.650Z,101455.02
2018-01-14T13:29:42.186Z,101456.73
2018-01-14T13:32:09.827Z,101456.17
2018-01-14T13:34:37.486Z,101456.67
2018-01-14T13:37:05.018Z,101447.62
2018-01-14T13:39:32.606Z,101449.52
2018-01-14T13:42:00.194Z,101453.77
2018-01-14T13:44:27.783Z,101453.48
2018-01-14T13:46:55.354Z,101456.09
2018-01-14T13:49:22.951Z,101453.91
2018-01-14T13:51:50.479Z,101447.78
2018-01-14T13:54:18.030Z,101453.95
2018-01-14T13:56:45.569Z,101451.98
2018-01-14T13:59:13.214Z,101453.48
2018-01-14T14:01:40.746Z,101463.38
2018-01-14T14:04:08.282Z,101452.28
2018-01-14T14:06:35.886Z,101453.50
2018-01-14T14:09:03.470Z,101453.00
2018-01-14T14:11:31.045Z,101444.16
2018-01-14T14:13:58.638Z,101444.05
2018-01-14T14:16:26.162Z,101452.23
2018-01-14T14:18:53.701Z,101448.23
2018-01-14T14:21:21.346Z,101438.37
2018-01-14T14:23:48.917Z,101435.39
2018-01-14T14:26:16.448Z,101436.55
2018-01-14T14:28:43.982Z,101443.16
2018-01-14T14:31:11.526Z,101440.98
2018-01-14T14:33:39.061Z,101443.83
2018-01-14T14:36:06.645Z,101445.38
2018-01-14T14:38:34.177Z,101447.52
2018-01-14T14:41:01.710Z,101446.06
2018-01-14T14:43:29.314Z,101442.80
2018-01-14T14:45:56.854Z,101450.02
2018-01-14T14:48:24.437Z,101448.44
2018-01-14T14:50:52.071Z,101449.92
2018-01-14T14:53:19.602Z,101435.88
2018-01-14T14:55:47.147Z,101441.42
2018-01-14T14:58:14.809Z,101439.70
2018-01-14T15:00:42.374Z,101431.14
2018-01-14T15:03:09.910Z,101425.75
2018-01-14T15:05:37.524Z,101433.06
2018-01-14T15:08:05.135Z,101426.86
2018-01-14T15:10:32.681Z,101432.94
2018-01-14T15:13:00.263Z,101438.41
2018-01-14T15:15:27.797Z,101438.30
2018-01-14T15:17:55.333Z,101450.83
2018-01-14T15:20:22.914Z,101453.16
2018-01-14T15:22:50.510Z,101457.39
2018-01-14T15:25:18.086Z,101460.73
2018-01-14T15:27:45.686Z,101463.23
2018-01-14T15:30:13.278Z,101466.70
2018-01-14T15:32:40.881Z,101477.32
2018-01-14T15:35:08.414Z,101466.08
2018-01-14T15:37:36.058Z,101466.66
2018-01-14T15:40:03.589Z,101474.31
2018-01-14T15:42:31.217Z,101475.42
2018-01-14T15:44:58.866Z,101472.50
2018-01-14T15:47:26.410Z,101469.25
2018-01-14T15:49:53.991Z,101476.03
2018-01-14T15:52:21.530Z,101470.32
2018-01-14T15:54:49.069Z,101466.88
2018-01-14T15:57:16.622Z,101465.47
2018-01-14T15:59:44.240Z,101465.16
2018-01-14T16:02:11.826Z,101457.09
2018-01-14T16:04:39.454Z,101468.94
2018-01-14T16:07:06.996Z,101472.69
2018-01-14T16:09:34.541Z,101474.01
2018-01-14T16:12:02.140Z,101471.52
2018-01-14T16:14:29.718Z,101459.80
2018-01-14T16:16:57.253Z,101460.28
2018-01-14T16:19:24.850Z,101462.52
2018-01-14T16:21:52.454Z,101468.11
2018-01-14T16:24:19.989Z,101464.09
2018-01-14T16:26:47.642Z,101469.22
2018-01-14T16:29:15.242Z,101475.54
2018-01-14T16:31:42.841Z,101476.64
2018-01-14T16:34:10.389Z,101462.77
2018-01-14T16:36:37.921Z,101465.52
2018-01-14T16:39:05.542Z,101472.22
2018-01-14T16:41:33.184Z,101475.33
2018-01-14T16:44:00.783Z,101477.13
2018-01-14T16:46:28.338Z,101470.89
2018-01-14T16:48:55.943Z,101476.31
2018-01-14T16:51:23.529Z,101484.12
2018-01-14T16:53:51.126Z,101485.81
2018-01-14T16:56:18.669Z,101483.75
2018-01-14T16:58:46.213Z,101485.95
2018-01-14T17:01:13.812Z,101475.72
2018-01-14T17:03:41.390Z,101467.28
2018-01-14T17:06:08.955Z,101475.66
2018-01-14T17:08:36.495Z,101472.77
2018-01-14T17:11:04.136Z,101477.67
2018-01-14T17:13:31.736Z,101481.86
2018-01-14T17:15:59.340Z,101480.25
2018-01-14T17:18:26.883Z,101483.78
2018-01-14T17:20:54.417Z,101478.53
2018-01-14T17:23:22.078Z,101467.89
2018-01-14T17:25:49.674Z,101466.84
2018-01-14T17:28:17.254Z,101472.37
2018-01-14T17:30:44.790Z,101470.79
2018-01-14T17:33:12.383Z,101467.84
2018-01-14T17:35:39.926Z,101463.93
2018-01-14T17:38:07.478Z,101457.53
2018-01-14T17:40:35.063Z,101463.98
2018-01-14T17:43:02.666Z,101464.33
2018-01-14T17:45:30.320Z,101468.75
2018-01-14T17:47:57.942Z,101469.06
2018-01-14T17:50:25.520Z,101478.11
2018-01-14T17:52:53.205Z,101462.00
2018-01-14T17:55:20.741Z,101449.95
2018-01-14T17:57:48.319Z,101445.19
2018-01-14T18:00:15.913Z,101447.33
2018-01-14T18:02:43.449Z,101462.58
2018-01-14T18:05:11.090Z,101475.89
2018-01-14T18:07:38.627Z,101483.80
2018-01-14T18:10:06.171Z,101484.12
2018-01-14T18:12:33.721Z,101478.36
2018-01-14T18:15:01.314Z,101474.45
2018-01-14T18:17:28.916Z,101479.64
2018-01-14T18:19:56.446Z,101470.55
2018-01-14T18:22:24.049Z,101475.23
2018-01-14T18:24:51.651Z,101471.06
2018-01-14T18:27:19.186Z,101471.34
2018-01-14T18:29:46.781Z,101474.91
2018-01-14T18:32:14.316Z,101478.17
2018-01-14T18:34:41.910Z,101467.37
2018-01-14T18:37:09.460Z,101475.45
2018-01-14T18:39:37.079Z,101475.66
2018-01-14T18:42:04.658Z,101476.01
2018-01-14T18:44:32.203Z,101475.34
2018-01-14T18:46:59.827Z,101482.60
2018-01-14T18:49:27.375Z,101483.70
2018-01-14T18:51:54.911Z,101480.14
2018-01-14T18:54:22.527Z,101487.56
2018-01-14T18:56:50.067Z,101482.89
2018-01-14T18:59:17.617Z,101480.97
2018-01-14T19:01:45.165Z,101489.89
2018-01-14T19:04:12.799Z,101489.75
2018-01-14T19:06:40.390Z,101490.63
2018-01-14T19:09:07.935Z,101495.48
2018-01-14T19:11:35.474Z,101495.37
2018-01-14T19:14:03.024Z,101500.21
2018-01-14T19:16:30.589Z,101504.85
2018-01-14T19:18:58.176Z,101505.31
2018-01-14T19:21:25.715Z,101500.41
2018-01-14T19:23:53.311Z,101503.97
2018-01-14T19:26:20.856Z,101507.89
2018-01-14T19:28:48.389Z,101502.42
2018-01-14T19:31:15.981Z,101497.72
2018-01-14T19:33:43.581Z,101493.59
2018-01-14T19:36:11.178Z,101494.25
2018-01-14T19:38:38.795Z,101492.24
2018-01-14T19:41:06.399Z,101483.44
2018-01-14T19:43:33.990Z,101484.98
2018-01-14T19:46:01.526Z,101483.01
2018-01-14T19:48:29.123Z,101490.47
2018-01-14T19:50:56.657Z,101498.44
2018-01-14T19:53:24.190Z,101491.84
2018-01-14T19:55:51.831Z,101494.81
2018-01-14T19:58:19.369Z,101491.37
2018-01-14T20:00:46.904Z,101496.69
2018-01-14T20:03:14.454Z,101495.51
2018-01-14T20:05:41.986Z,101489.23
2018-01-14T20:08:09.592Z,101490.14
2018-01-14T20:10:37.131Z,101485.76
2018-01-14T20:13:04.670Z,101479.71
2018-01-14T20:15:32.224Z,101490.58
2018-01-14T20:18:00.038Z,101490.09
2018-01-14T20:20:27.627Z,101491.92
2018-01-14T20:22:55.170Z,101489.97
2018-01-14T20:25:22.709Z,101481.92
2018-01-14T20:27:50.259Z,101486.70
2018-01-14T20:30:17.802Z,101489.31
2018-01-14T20:32:45.382Z,101489.89
2018-01-14T20:35:12.922Z,101488.08
2018-01-14T20:37:40.461Z,101489.59
2018-01-14T20:40:08.026Z,101486.04
2018-01-14T20:42:35.622Z,101485.09
2018-01-14T20:45:03.210Z,101485.27
2018-01-14T20:47:30.744Z,101485.09
2018-01-14T20:49:58.277Z,101486.88
2018-01-14T20:52:25.814Z,101483.63
2018-01-14T20:54:53.350Z,101485.09
2018-01-14T20:57:20.941Z,101480.45
2018-01-14T20:59:48.495Z,101483.32
2018-01-14T21:02:16.038Z,101480.14
2018-01-14T21:04:43.586Z,101476.09
2018-01-14T21:07:11.186Z,101476.09
2018-01-14T21:09:38.818Z,101473.00
2018-01-14T21:12:06.350Z,101470.87
2018-01-14T21:14:33.886Z,101469.50
2018-01-14T21:17:01.429Z,101474.09
2018-01-14T21:19:28.980Z,101466.75
2018-01-14T21:21:56.698Z,101464.37
2018-01-14T21:24:24.334Z,101457.13
2018-01-14T21:26:51.917Z,101452.05
2018-01-14T21:29:19.473Z,101452.62
2018-01-14T21:31:47.071Z,101455.11
2018-01-14T21:34:14.645Z,101448.21
2018-01-14T21:36:42.185Z,101462.59
2018-01-14T21:39:09.778Z,101463.05
2018-01-14T21:41:37.379Z,101463.45
2018-01-14T21:44:04.910Z,101457.49
2018-01-14T21:46:32.494Z,101460.94
2018-01-14T21:49:00.084Z,101469.16
2018-01-14T21:51:27.698Z,101477.22
2018-01-14T21:53:55.330Z,101475.72
2018-01-14T21:56:22.865Z,101471.14
2018-01-14T21:58:50.517Z,101472.05
2018-01-14T22:01:18.054Z,101466.55
2018-01-14T22:03:45.582Z,101463.94
2018-01-14T22:06:13.176Z,101454.08
2018-01-14T22:08:40.780Z,101459.41
2018-01-14T22:11:08.418Z,101467.22
2018-01-14T22:13:36.046Z,101474.95
2018-01-14T22:16:03.581Z,101467.87
2018-01-14T22:18:31.179Z,101463.02
2018-01-14T22:20:58.718Z,101446.11
2018-01-14T22:23:26.358Z,101451.44
2018-01-14T22:25:53.960Z,101452.84
2018-01-14T22:28:21.493Z,101451.24
2018-01-14T22:30:49.042Z,101442.02
2018-01-14T22:33:16.582Z,101429.38
2018-01-14T22:35:44.162Z,101432.00
2018-01-14T22:38:11.694Z,101430.83
2018-01-14T22:40:39.290Z,101427.72
2018-01-14T22:43:06.933Z,101437.43
2018-01-14T22:45:34.530Z,101428.34
2018-01-14T22:48:02.106Z,101430.98
2018-01-14T22:50:29.641Z,101431.09
2018-01-14T22:52:57.177Z,101432.66
2018-01-14T22:55:24.716Z,101433.02
2018-01-14T22:57:52.311Z,101428.52
2018-01-14T23:00:19.962Z,101424.77
2018-01-14T23:02:47.496Z,101419.83
2018-01-14T23:05:15.035Z,101426.16
2018-01-14T23:07:42.574Z,101431.23
2018-01-14T23:10:10.338Z,101423.52
2018-01-14T23:12:37.990Z,101423.16
2018-01-14T23:15:08.498Z,101422.63
2018-01-14T23:17:36.030Z,101419.97
2018-01-14T23:20:03.569Z,101426.08
2018-01-14T23:22:31.099Z,101423.09
2018-01-14T23:24:58.684Z,101427.69
2018-01-14T23:27:26.221Z,101425.25
2018-01-14T23:29:53.753Z,101415.59
2018-01-14T23:32:21.305Z,101408.56
2018-01-14T23:34:48.845Z,101419.89
2018-01-14T23:37:16.490Z,101421.38
2018-01-14T23:39:44.121Z,101419.44
2018-01-14T23:42:11.649Z,101416.69
2018-01-14T23:44:39.185Z,101416.85
2018-01-14T23:47:06.730Z,101415.97
2018-01-14T23:49:34.309Z,101417.66
2018-01-14T23:52:01.845Z,101416.66
2018-01-14T23:54:29.438Z,101409.49
2018-01-14T23:56:57.055Z,101414.10
2018-01-14T23:59:24.596Z,101408.20
